sensor_id;sensor_type;location;lat;lon;timestamp;P1;durP1;ratioP1;P2;durP2;ratioP2
61756;SDS011;57225;61.460;24.060;2023-02-28T00:00:11;0.30;;;0.10;;
61756;SDS011;57225;61.460;24.060;2023-02-28T00:02:57;0.88;;;0.25;;
61756;SDS011;57225;61.460;24.060;2023-02-28T00:05:41;2.65;;;0.25;;
61756;SDS011;57225;61.460;24.060;2023-02-28T00:08:26;1.10;;;0.22;;
61756;SDS011;57225;61.460;24.060;2023-02-28T00:11:11;1.88;;;0.20;;
61756;SDS011;57225;61.460;24.060;2023-02-28T00:13:57;1.45;;;0.40;;
61756;SDS011;57225;61.460;24.060;2023-02-28T00:16:42;0.68;;;0.20;;
61756;SDS011;57225;61.460;24.060;2023-02-28T00:19:26;0.80;;;0.30;;
61756;SDS011;57225;61.460;24.060;2023-02-28T00:22:10;1.80;;;0.20;;
61756;SDS011;57225;61.460;24.060;2023-02-28T00:24:55;0.30;;;0.10;;
61756;SDS011;57225;61.460;24.060;2023-02-28T00:27:40;1.35;;;0.35;;
61756;SDS011;57225;61.460;24.060;2023-02-28T00:30:24;1.00;;;0.13;;
61756;SDS011;57225;61.460;24.060;2023-02-28T00:33:09;3.00;;;0.40;;
61756;SDS011;57225;61.460;24.060;2023-02-28T00:36:00;1.48;;;0.10;;
61756;SDS011;57225;61.460;24.060;2023-02-28T00:38:47;0.90;;;0.28;;
61756;SDS011;57225;61.460;24.060;2023-02-28T00:41:31;2.80;;;0.30;;
61756;SDS011;57225;61.460;24.060;2023-02-28T00:44:15;3.33;;;0.40;;
61756;SDS011;57225;61.460;24.060;2023-02-28T00:47:00;1.90;;;0.20;;
61756;SDS011;57225;61.460;24.060;2023-02-28T00:49:44;1.70;;;0.30;;
61756;SDS011;57225;61.460;24.060;2023-02-28T00:52:29;2.22;;;0.28;;
61756;SDS011;57225;61.460;24.060;2023-02-28T00:55:14;1.55;;;0.20;;
61756;SDS011;57225;61.460;24.060;2023-02-28T00:57:59;0.90;;;0.20;;
61756;SDS011;57225;61.460;24.060;2023-02-28T01:00:43;0.80;;;0.38;;
61756;SDS011;57225;61.460;24.060;2023-02-28T01:03:32;2.35;;;0.40;;
61756;SDS011;57225;61.460;24.060;2023-02-28T01:06:17;1.95;;;0.60;;
61756;SDS011;57225;61.460;24.060;2023-02-28T01:09:02;1.40;;;0.40;;
61756;SDS011;57225;61.460;24.060;2023-02-28T01:11:48;6.28;;;0.40;;
61756;SDS011;57225;61.460;24.060;2023-02-28T01:14:32;1.23;;;0.30;;
61756;SDS011;57225;61.460;24.060;2023-02-28T01:17:18;2.55;;;0.20;;
61756;SDS011;57225;61.460;24.060;2023-02-28T01:20:03;3.33;;;0.35;;
61756;SDS011;57225;61.460;24.060;2023-02-28T01:22:47;1.63;;;0.30;;
61756;SDS011;57225;61.460;24.060;2023-02-28T01:25:33;0.30;;;0.20;;
61756;SDS011;57225;61.460;24.060;2023-02-28T01:28:20;1.13;;;0.22;;
61756;SDS011;57225;61.460;24.060;2023-02-28T01:31:06;1.55;;;0.43;;
61756;SDS011;57225;61.460;24.060;2023-02-28T01:33:50;3.53;;;0.17;;
61756;SDS011;57225;61.460;24.060;2023-02-28T01:36:35;1.05;;;0.40;;
61756;SDS011;57225;61.460;24.060;2023-02-28T01:39:20;2.33;;;0.40;;
61756;SDS011;57225;61.460;24.060;2023-02-28T01:42:04;0.77;;;0.30;;
61756;SDS011;57225;61.460;24.060;2023-02-28T01:44:57;2.08;;;0.30;;
61756;SDS011;57225;61.460;24.060;2023-02-28T01:47:43;1.08;;;0.40;;
61756;SDS011;57225;61.460;24.060;2023-02-28T01:50:30;2.08;;;0.22;;
61756;SDS011;57225;61.460;24.060;2023-02-28T01:53:19;0.90;;;0.22;;
61756;SDS011;57225;61.460;24.060;2023-02-28T01:56:10;1.95;;;0.30;;
61756;SDS011;57225;61.460;24.060;2023-02-28T01:59:03;1.27;;;0.30;;
61756;SDS011;57225;61.460;24.060;2023-02-28T02:01:48;0.30;;;0.20;;
61756;SDS011;57225;61.460;24.060;2023-02-28T02:04:37;2.08;;;0.40;;
61756;SDS011;57225;61.460;24.060;2023-02-28T02:07:25;2.10;;;0.20;;
61756;SDS011;57225;61.460;24.060;2023-02-28T02:10:15;1.30;;;0.40;;
61756;SDS011;57225;61.460;24.060;2023-02-28T02:13:03;2.10;;;0.40;;
61756;SDS011;57225;61.460;24.060;2023-02-28T02:31:37;2.20;;;0.35;;
61756;SDS011;57225;61.460;24.060;2023-02-28T02:37:27;0.88;;;0.22;;
61756;SDS011;57225;61.460;24.060;2023-02-28T02:43:01;1.95;;;0.32;;
61756;SDS011;57225;61.460;24.060;2023-02-28T02:45:53;2.35;;;0.43;;
61756;SDS011;57225;61.460;24.060;2023-02-28T02:51:27;0.57;;;0.35;;
61756;SDS011;57225;61.460;24.060;2023-02-28T02:54:28;0.98;;;0.13;;
61756;SDS011;57225;61.460;24.060;2023-02-28T02:57:17;0.98;;;0.10;;
61756;SDS011;57225;61.460;24.060;2023-02-28T03:00:17;2.70;;;0.20;;
61756;SDS011;57225;61.460;24.060;2023-02-28T03:03:07;0.40;;;0.30;;
61756;SDS011;57225;61.460;24.060;2023-02-28T03:05:54;2.05;;;0.30;;
61756;SDS011;57225;61.460;24.060;2023-02-28T03:08:40;0.38;;;0.20;;
61756;SDS011;57225;61.460;24.060;2023-02-28T03:11:24;0.90;;;0.20;;
61756;SDS011;57225;61.460;24.060;2023-02-28T03:14:15;2.95;;;0.43;;
61756;SDS011;57225;61.460;24.060;2023-02-28T03:20:38;1.63;;;0.20;;
61756;SDS011;57225;61.460;24.060;2023-02-28T03:24:23;1.67;;;0.15;;
61756;SDS011;57225;61.460;24.060;2023-02-28T03:27:06;2.70;;;0.10;;
61756;SDS011;57225;61.460;24.060;2023-02-28T03:33:09;3.30;;;0.20;;
61756;SDS011;57225;61.460;24.060;2023-02-28T03:36:02;1.58;;;0.20;;
61756;SDS011;57225;61.460;24.060;2023-02-28T03:39:09;0.95;;;0.22;;
61756;SDS011;57225;61.460;24.060;2023-02-28T03:41:59;1.35;;;0.25;;
61756;SDS011;57225;61.460;24.060;2023-02-28T03:44:52;1.48;;;0.20;;
61756;SDS011;57225;61.460;24.060;2023-02-28T03:47:57;0.50;;;0.20;;
61756;SDS011;57225;61.460;24.060;2023-02-28T03:51:09;0.85;;;0.20;;
61756;SDS011;57225;61.460;24.060;2023-02-28T03:53:58;0.10;;;0.10;;
61756;SDS011;57225;61.460;24.060;2023-02-28T03:56:51;2.13;;;0.25;;
61756;SDS011;57225;61.460;24.060;2023-02-28T03:59:42;2.35;;;0.25;;
61756;SDS011;57225;61.460;24.060;2023-02-28T04:02:31;0.65;;;0.30;;
61756;SDS011;57225;61.460;24.060;2023-02-28T04:05:15;2.00;;;0.20;;
61756;SDS011;57225;61.460;24.060;2023-02-28T04:08:04;1.48;;;0.50;;
61756;SDS011;57225;61.460;24.060;2023-02-28T04:10:57;1.85;;;0.20;;
61756;SDS011;57225;61.460;24.060;2023-02-28T04:13:50;0.50;;;0.28;;
61756;SDS011;57225;61.460;24.060;2023-02-28T04:16:36;2.33;;;0.40;;
61756;SDS011;57225;61.460;24.060;2023-02-28T04:19:22;2.05;;;0.20;;
61756;SDS011;57225;61.460;24.060;2023-02-28T04:22:07;1.88;;;0.20;;
61756;SDS011;57225;61.460;24.060;2023-02-28T04:24:52;0.75;;;0.28;;
61756;SDS011;57225;61.460;24.060;2023-02-28T04:27:40;1.77;;;0.50;;
61756;SDS011;57225;61.460;24.060;2023-02-28T04:30:24;2.92;;;0.77;;
61756;SDS011;57225;61.460;24.060;2023-02-28T04:33:09;3.95;;;0.90;;
61756;SDS011;57225;61.460;24.060;2023-02-28T04:36:03;4.00;;;0.90;;
61756;SDS011;57225;61.460;24.060;2023-02-28T04:38:50;3.40;;;0.65;;
61756;SDS011;57225;61.460;24.060;2023-02-28T04:41:35;1.35;;;0.38;;
61756;SDS011;57225;61.460;24.060;2023-02-28T04:44:20;5.28;;;0.50;;
61756;SDS011;57225;61.460;24.060;2023-02-28T04:47:05;2.20;;;0.40;;
61756;SDS011;57225;61.460;24.060;2023-02-28T04:49:49;2.38;;;0.50;;
61756;SDS011;57225;61.460;24.060;2023-02-28T04:52:34;3.25;;;0.70;;
61756;SDS011;57225;61.460;24.060;2023-02-28T04:55:18;4.05;;;0.60;;
61756;SDS011;57225;61.460;24.060;2023-02-28T04:58:03;4.53;;;0.65;;
61756;SDS011;57225;61.460;24.060;2023-02-28T05:00:48;8.27;;;0.60;;
61756;SDS011;57225;61.460;24.060;2023-02-28T05:03:33;0.50;;;0.22;;
61756;SDS011;57225;61.460;24.060;2023-02-28T05:06:18;5.85;;;0.80;;
61756;SDS011;57225;61.460;24.060;2023-02-28T05:09:04;1.83;;;0.22;;
61756;SDS011;57225;61.460;24.060;2023-02-28T05:11:48;2.00;;;0.40;;
61756;SDS011;57225;61.460;24.060;2023-02-28T05:14:32;3.50;;;0.50;;
61756;SDS011;57225;61.460;24.060;2023-02-28T05:17:17;2.88;;;0.50;;
61756;SDS011;57225;61.460;24.060;2023-02-28T05:20:01;4.13;;;0.60;;
61756;SDS011;57225;61.460;24.060;2023-02-28T05:22:47;2.50;;;0.57;;
61756;SDS011;57225;61.460;24.060;2023-02-28T05:25:33;3.33;;;0.43;;
61756;SDS011;57225;61.460;24.060;2023-02-28T05:28:18;2.90;;;0.73;;
61756;SDS011;57225;61.460;24.060;2023-02-28T05:31:02;1.80;;;0.50;;
61756;SDS011;57225;61.460;24.060;2023-02-28T05:33:47;5.35;;;0.80;;
61756;SDS011;57225;61.460;24.060;2023-02-28T05:36:31;3.53;;;0.60;;
61756;SDS011;57225;61.460;24.060;2023-02-28T05:39:16;4.22;;;1.10;;
61756;SDS011;57225;61.460;24.060;2023-02-28T05:42:01;3.60;;;0.85;;
61756;SDS011;57225;61.460;24.060;2023-02-28T05:44:46;2.45;;;0.68;;
61756;SDS011;57225;61.460;24.060;2023-02-28T05:47:30;3.05;;;0.80;;
61756;SDS011;57225;61.460;24.060;2023-02-28T05:50:14;9.23;;;0.85;;
61756;SDS011;57225;61.460;24.060;2023-02-28T05:52:59;5.95;;;1.10;;
61756;SDS011;57225;61.460;24.060;2023-02-28T05:55:43;4.57;;;0.93;;
61756;SDS011;57225;61.460;24.060;2023-02-28T05:58:28;5.55;;;0.63;;
61756;SDS011;57225;61.460;24.060;2023-02-28T06:01:21;3.58;;;0.60;;
61756;SDS011;57225;61.460;24.060;2023-02-28T06:04:18;4.03;;;0.52;;
61756;SDS011;57225;61.460;24.060;2023-02-28T06:07:04;7.13;;;0.90;;
61756;SDS011;57225;61.460;24.060;2023-02-28T06:09:48;4.35;;;0.80;;
61756;SDS011;57225;61.460;24.060;2023-02-28T06:12:33;4.45;;;0.75;;
61756;SDS011;57225;61.460;24.060;2023-02-28T06:15:17;4.97;;;0.77;;
61756;SDS011;57225;61.460;24.060;2023-02-28T06:18:02;4.47;;;0.70;;
61756;SDS011;57225;61.460;24.060;2023-02-28T06:20:53;4.68;;;0.68;;
61756;SDS011;57225;61.460;24.060;2023-02-28T06:23:38;4.65;;;1.00;;
61756;SDS011;57225;61.460;24.060;2023-02-28T06:26:23;5.85;;;1.20;;
61756;SDS011;57225;61.460;24.060;2023-02-28T06:29:07;4.88;;;0.70;;
61756;SDS011;57225;61.460;24.060;2023-02-28T06:31:52;5.93;;;0.70;;
61756;SDS011;57225;61.460;24.060;2023-02-28T06:34:37;7.57;;;0.75;;
61756;SDS011;57225;61.460;24.060;2023-02-28T06:56:14;12.70;;;1.88;;
61756;SDS011;57225;61.460;24.060;2023-02-28T06:59:00;12.57;;;1.65;;
61756;SDS011;57225;61.460;24.060;2023-02-28T07:01:44;14.15;;;1.52;;
61756;SDS011;57225;61.460;24.060;2023-02-28T07:04:29;15.52;;;1.80;;
61756;SDS011;57225;61.460;24.060;2023-02-28T07:07:13;9.63;;;1.70;;
61756;SDS011;57225;61.460;24.060;2023-02-28T07:09:57;17.10;;;2.50;;
61756;SDS011;57225;61.460;24.060;2023-02-28T07:12:42;17.73;;;2.45;;
61756;SDS011;57225;61.460;24.060;2023-02-28T07:15:27;14.15;;;2.13;;
61756;SDS011;57225;61.460;24.060;2023-02-28T07:18:11;17.30;;;2.55;;
61756;SDS011;57225;61.460;24.060;2023-02-28T07:20:56;10.25;;;2.00;;
61756;SDS011;57225;61.460;24.060;2023-02-28T07:23:40;15.73;;;2.25;;
61756;SDS011;57225;61.460;24.060;2023-02-28T07:26:25;16.77;;;2.28;;
61756;SDS011;57225;61.460;24.060;2023-02-28T07:29:10;16.85;;;2.33;;
61756;SDS011;57225;61.460;24.060;2023-02-28T07:31:54;13.63;;;1.73;;
61756;SDS011;57225;61.460;24.060;2023-02-28T07:34:39;16.95;;;2.28;;
61756;SDS011;57225;61.460;24.060;2023-02-28T07:37:23;18.70;;;2.30;;
61756;SDS011;57225;61.460;24.060;2023-02-28T07:40:09;15.30;;;2.42;;
61756;SDS011;57225;61.460;24.060;2023-02-28T07:42:58;14.85;;;1.67;;
61756;SDS011;57225;61.460;24.060;2023-02-28T07:45:44;16.80;;;1.65;;
61756;SDS011;57225;61.460;24.060;2023-02-28T07:48:28;14.18;;;1.90;;
61756;SDS011;57225;61.460;24.060;2023-02-28T07:51:13;10.82;;;1.63;;
61756;SDS011;57225;61.460;24.060;2023-02-28T07:53:57;17.20;;;1.92;;
61756;SDS011;57225;61.460;24.060;2023-02-28T07:56:42;15.65;;;1.65;;
61756;SDS011;57225;61.460;24.060;2023-02-28T07:59:26;7.20;;;1.60;;
61756;SDS011;57225;61.460;24.060;2023-02-28T08:02:14;12.85;;;1.98;;
61756;SDS011;57225;61.460;24.060;2023-02-28T08:05:00;9.38;;;1.65;;
61756;SDS011;57225;61.460;24.060;2023-02-28T08:07:44;6.88;;;1.30;;
61756;SDS011;57225;61.460;24.060;2023-02-28T08:10:29;10.80;;;1.83;;
61756;SDS011;57225;61.460;24.060;2023-02-28T08:13:13;9.88;;;1.30;;
61756;SDS011;57225;61.460;24.060;2023-02-28T08:15:58;11.75;;;1.35;;
61756;SDS011;57225;61.460;24.060;2023-02-28T08:18:44;10.10;;;1.27;;
61756;SDS011;57225;61.460;24.060;2023-02-28T08:21:29;7.95;;;1.23;;
61756;SDS011;57225;61.460;24.060;2023-02-28T08:24:13;9.10;;;0.90;;
61756;SDS011;57225;61.460;24.060;2023-02-28T08:26:58;6.20;;;1.20;;
61756;SDS011;57225;61.460;24.060;2023-02-28T08:29:42;9.75;;;1.50;;
61756;SDS011;57225;61.460;24.060;2023-02-28T08:32:27;7.88;;;1.50;;
61756;SDS011;57225;61.460;24.060;2023-02-28T08:35:11;5.47;;;1.08;;
61756;SDS011;57225;61.460;24.060;2023-02-28T08:37:56;6.05;;;1.17;;
61756;SDS011;57225;61.460;24.060;2023-02-28T08:40:40;9.27;;;1.08;;
61756;SDS011;57225;61.460;24.060;2023-02-28T08:43:24;5.03;;;0.98;;
61756;SDS011;57225;61.460;24.060;2023-02-28T08:46:13;6.15;;;1.02;;
61756;SDS011;57225;61.460;24.060;2023-02-28T08:48:57;7.63;;;1.37;;
61756;SDS011;57225;61.460;24.060;2023-02-28T08:51:45;6.65;;;1.08;;
61756;SDS011;57225;61.460;24.060;2023-02-28T08:54:29;7.07;;;0.95;;
61756;SDS011;57225;61.460;24.060;2023-02-28T08:57:15;7.65;;;1.48;;
61756;SDS011;57225;61.460;24.060;2023-02-28T09:00:00;10.50;;;1.15;;
61756;SDS011;57225;61.460;24.060;2023-02-28T09:02:48;12.10;;;1.92;;
61756;SDS011;57225;61.460;24.060;2023-02-28T09:05:32;6.10;;;1.23;;
61756;SDS011;57225;61.460;24.060;2023-02-28T09:08:17;6.45;;;1.02;;
61756;SDS011;57225;61.460;24.060;2023-02-28T09:11:01;13.13;;;1.10;;
61756;SDS011;57225;61.460;24.060;2023-02-28T09:13:46;8.52;;;1.10;;
61756;SDS011;57225;61.460;24.060;2023-02-28T09:16:31;6.20;;;0.93;;
61756;SDS011;57225;61.460;24.060;2023-02-28T09:19:16;6.15;;;1.13;;
61756;SDS011;57225;61.460;24.060;2023-02-28T09:22:00;5.22;;;0.93;;
61756;SDS011;57225;61.460;24.060;2023-02-28T09:24:45;7.30;;;1.00;;
61756;SDS011;57225;61.460;24.060;2023-02-28T09:27:29;6.72;;;1.02;;
61756;SDS011;57225;61.460;24.060;2023-02-28T09:30:14;8.48;;;1.23;;
61756;SDS011;57225;61.460;24.060;2023-02-28T09:32:58;6.75;;;1.33;;
61756;SDS011;57225;61.460;24.060;2023-02-28T09:35:43;7.57;;;1.50;;
61756;SDS011;57225;61.460;24.060;2023-02-28T09:38:27;6.07;;;1.00;;
61756;SDS011;57225;61.460;24.060;2023-02-28T09:41:25;3.92;;;0.82;;
61756;SDS011;57225;61.460;24.060;2023-02-28T09:47:34;15.68;;;1.30;;
61756;SDS011;57225;61.460;24.060;2023-02-28T09:50:33;7.25;;;1.10;;
61756;SDS011;57225;61.460;24.060;2023-02-28T09:53:26;7.22;;;0.95;;
61756;SDS011;57225;61.460;24.060;2023-02-28T09:56:21;5.18;;;0.90;;
61756;SDS011;57225;61.460;24.060;2023-02-28T10:05:43;7.28;;;1.35;;
61756;SDS011;57225;61.460;24.060;2023-02-28T10:08:41;7.60;;;1.00;;
61756;SDS011;57225;61.460;24.060;2023-02-28T10:11:47;9.35;;;1.02;;
61756;SDS011;57225;61.460;24.060;2023-02-28T10:14:34;8.15;;;1.02;;
61756;SDS011;57225;61.460;24.060;2023-02-28T10:17:23;8.20;;;1.23;;
61756;SDS011;57225;61.460;24.060;2023-02-28T10:20:11;9.02;;;1.38;;
61756;SDS011;57225;61.460;24.060;2023-02-28T10:23:19;4.35;;;0.85;;
61756;SDS011;57225;61.460;24.060;2023-02-28T10:26:09;4.75;;;0.90;;
61756;SDS011;57225;61.460;24.060;2023-02-28T10:28:56;3.10;;;0.90;;
61756;SDS011;57225;61.460;24.060;2023-02-28T10:31:41;6.82;;;0.98;;
61756;SDS011;57225;61.460;24.060;2023-02-28T10:34:25;7.43;;;0.80;;
61756;SDS011;57225;61.460;24.060;2023-02-28T10:37:10;9.90;;;1.50;;
61756;SDS011;57225;61.460;24.060;2023-02-28T10:39:56;3.90;;;0.82;;
61756;SDS011;57225;61.460;24.060;2023-02-28T10:42:41;6.75;;;1.00;;
61756;SDS011;57225;61.460;24.060;2023-02-28T10:45:26;6.38;;;0.73;;
61756;SDS011;57225;61.460;24.060;2023-02-28T10:50:58;7.72;;;1.02;;
61756;SDS011;57225;61.460;24.060;2023-02-28T10:56:28;3.92;;;1.00;;
61756;SDS011;57225;61.460;24.060;2023-02-28T10:59:27;5.95;;;0.85;;
61756;SDS011;57225;61.460;24.060;2023-02-28T11:02:33;5.35;;;1.45;;
61756;SDS011;57225;61.460;24.060;2023-02-28T11:05:31;5.88;;;0.70;;
61756;SDS011;57225;61.460;24.060;2023-02-28T11:08:17;3.28;;;0.70;;
61756;SDS011;57225;61.460;24.060;2023-02-28T11:11:05;7.63;;;0.70;;
61756;SDS011;57225;61.460;24.060;2023-02-28T11:13:51;5.70;;;0.88;;
61756;SDS011;57225;61.460;24.060;2023-02-28T11:16:37;5.95;;;0.90;;
61756;SDS011;57225;61.460;24.060;2023-02-28T11:19:28;4.85;;;0.73;;
61756;SDS011;57225;61.460;24.060;2023-02-28T11:22:19;4.35;;;0.80;;
61756;SDS011;57225;61.460;24.060;2023-02-28T11:25:09;6.85;;;1.00;;
61756;SDS011;57225;61.460;24.060;2023-02-28T11:28:23;3.30;;;0.68;;
61756;SDS011;57225;61.460;24.060;2023-02-28T11:33:58;3.38;;;0.73;;
61756;SDS011;57225;61.460;24.060;2023-02-28T11:36:42;4.93;;;0.80;;
61756;SDS011;57225;61.460;24.060;2023-02-28T11:39:28;8.57;;;0.85;;
61756;SDS011;57225;61.460;24.060;2023-02-28T11:48:55;3.47;;;0.70;;
61756;SDS011;57225;61.460;24.060;2023-02-28T11:52:16;5.68;;;1.30;;
61756;SDS011;57225;61.460;24.060;2023-02-28T12:04:03;5.47;;;1.05;;
61756;SDS011;57225;61.460;24.060;2023-02-28T12:06:54;3.17;;;0.70;;
61756;SDS011;57225;61.460;24.060;2023-02-28T12:09:47;4.72;;;0.75;;
61756;SDS011;57225;61.460;24.060;2023-02-28T12:12:55;7.90;;;1.13;;
61756;SDS011;57225;61.460;24.060;2023-02-28T12:19:07;4.57;;;0.70;;
61756;SDS011;57225;61.460;24.060;2023-02-28T12:25:02;4.35;;;0.95;;
61756;SDS011;57225;61.460;24.060;2023-02-28T12:28:04;3.25;;;0.90;;
61756;SDS011;57225;61.460;24.060;2023-02-28T12:34:01;4.40;;;0.70;;
61756;SDS011;57225;61.460;24.060;2023-02-28T12:37:08;5.70;;;1.10;;
61756;SDS011;57225;61.460;24.060;2023-02-28T12:40:01;7.25;;;1.10;;
61756;SDS011;57225;61.460;24.060;2023-02-28T12:42:52;3.45;;;0.88;;
61756;SDS011;57225;61.460;24.060;2023-02-28T12:45:47;5.28;;;1.05;;
61756;SDS011;57225;61.460;24.060;2023-02-28T12:48:42;6.72;;;1.27;;
61756;SDS011;57225;61.460;24.060;2023-02-28T12:51:30;9.82;;;1.20;;
61756;SDS011;57225;61.460;24.060;2023-02-28T12:54:19;9.18;;;1.02;;
61756;SDS011;57225;61.460;24.060;2023-02-28T12:57:14;8.10;;;1.23;;
61756;SDS011;57225;61.460;24.060;2023-02-28T13:00:02;4.88;;;0.80;;
61756;SDS011;57225;61.460;24.060;2023-02-28T13:09:15;5.93;;;1.30;;
61756;SDS011;57225;61.460;24.060;2023-02-28T13:12:00;3.80;;;1.10;;
61756;SDS011;57225;61.460;24.060;2023-02-28T13:14:45;7.47;;;0.80;;
61756;SDS011;57225;61.460;24.060;2023-02-28T13:17:30;7.43;;;1.00;;
61756;SDS011;57225;61.460;24.060;2023-02-28T13:20:19;9.50;;;1.00;;
61756;SDS011;57225;61.460;24.060;2023-02-28T13:23:35;9.20;;;1.10;;
61756;SDS011;57225;61.460;24.060;2023-02-28T13:37:35;6.47;;;0.90;;
61756;SDS011;57225;61.460;24.060;2023-02-28T13:43:20;6.07;;;0.88;;
61756;SDS011;57225;61.460;24.060;2023-02-28T13:46:24;4.40;;;0.77;;
61756;SDS011;57225;61.460;24.060;2023-02-28T13:49:19;6.40;;;1.00;;
61756;SDS011;57225;61.460;24.060;2023-02-28T13:52:14;10.73;;;1.02;;
61756;SDS011;57225;61.460;24.060;2023-02-28T13:55:13;5.90;;;1.20;;
61756;SDS011;57225;61.460;24.060;2023-02-28T14:05:00;8.52;;;1.33;;
61756;SDS011;57225;61.460;24.060;2023-02-28T14:07:57;5.60;;;0.90;;
61756;SDS011;57225;61.460;24.060;2023-02-28T14:10:49;5.55;;;0.90;;
61756;SDS011;57225;61.460;24.060;2023-02-28T14:13:46;3.58;;;0.60;;
61756;SDS011;57225;61.460;24.060;2023-02-28T14:16:46;9.60;;;1.23;;
61756;SDS011;57225;61.460;24.060;2023-02-28T14:19:34;13.32;;;1.65;;
61756;SDS011;57225;61.460;24.060;2023-02-28T14:25:45;10.40;;;1.25;;
61756;SDS011;57225;61.460;24.060;2023-02-28T14:31:34;6.85;;;1.10;;
61756;SDS011;57225;61.460;24.060;2023-02-28T14:35:14;6.35;;;1.38;;
61756;SDS011;57225;61.460;24.060;2023-02-28T14:37:46;7.22;;;1.65;;
61756;SDS011;57225;61.460;24.060;2023-02-28T14:40:35;13.80;;;1.38;;
61756;SDS011;57225;61.460;24.060;2023-02-28T14:43:23;11.27;;;2.05;;
61756;SDS011;57225;61.460;24.060;2023-02-28T14:46:10;9.35;;;1.25;;
61756;SDS011;57225;61.460;24.060;2023-02-28T14:48:57;10.45;;;1.52;;
61756;SDS011;57225;61.460;24.060;2023-02-28T14:51:42;9.50;;;1.45;;
61756;SDS011;57225;61.460;24.060;2023-02-28T14:54:27;5.35;;;1.30;;
61756;SDS011;57225;61.460;24.060;2023-02-28T15:02:58;6.35;;;1.50;;
61756;SDS011;57225;61.460;24.060;2023-02-28T15:05:51;12.63;;;1.92;;
61756;SDS011;57225;61.460;24.060;2023-02-28T15:08:36;8.10;;;1.90;;
61756;SDS011;57225;61.460;24.060;2023-02-28T15:11:21;11.32;;;1.63;;
61756;SDS011;57225;61.460;24.060;2023-02-28T15:14:06;13.90;;;1.67;;
61756;SDS011;57225;61.460;24.060;2023-02-28T15:16:57;13.77;;;1.63;;
61756;SDS011;57225;61.460;24.060;2023-02-28T15:19:46;14.73;;;1.75;;
61756;SDS011;57225;61.460;24.060;2023-02-28T15:22:35;12.05;;;1.95;;
61756;SDS011;57225;61.460;24.060;2023-02-28T15:25:22;16.25;;;1.98;;
61756;SDS011;57225;61.460;24.060;2023-02-28T15:28:25;11.15;;;1.70;;
61756;SDS011;57225;61.460;24.060;2023-02-28T15:31:26;10.68;;;1.67;;
61756;SDS011;57225;61.460;24.060;2023-02-28T15:34:12;6.38;;;1.33;;
61756;SDS011;57225;61.460;24.060;2023-02-28T15:37:23;9.20;;;1.63;;
61756;SDS011;57225;61.460;24.060;2023-02-28T15:40:17;17.15;;;2.50;;
61756;SDS011;57225;61.460;24.060;2023-02-28T15:43:18;13.57;;;1.63;;
61756;SDS011;57225;61.460;24.060;2023-02-28T15:46:23;13.30;;;2.17;;
61756;SDS011;57225;61.460;24.060;2023-02-28T15:49:17;9.52;;;2.20;;
61756;SDS011;57225;61.460;24.060;2023-02-28T15:52:03;14.13;;;2.60;;
61756;SDS011;57225;61.460;24.060;2023-02-28T15:54:48;9.70;;;1.92;;
61756;SDS011;57225;61.460;24.060;2023-02-28T15:57:33;6.47;;;1.52;;
61756;SDS011;57225;61.460;24.060;2023-02-28T16:00:21;11.82;;;2.20;;
61756;SDS011;57225;61.460;24.060;2023-02-28T16:03:24;8.48;;;1.58;;
61756;SDS011;57225;61.460;24.060;2023-02-28T16:06:33;9.07;;;1.40;;
61756;SDS011;57225;61.460;24.060;2023-02-28T16:09:22;15.82;;;2.50;;
61756;SDS011;57225;61.460;24.060;2023-02-28T16:12:08;9.30;;;1.73;;
61756;SDS011;57225;61.460;24.060;2023-02-28T16:14:58;10.27;;;1.60;;
61756;SDS011;57225;61.460;24.060;2023-02-28T16:20:30;10.15;;;1.98;;
61756;SDS011;57225;61.460;24.060;2023-02-28T16:23:15;7.55;;;2.55;;
61756;SDS011;57225;61.460;24.060;2023-02-28T16:25:59;10.88;;;1.73;;
61756;SDS011;57225;61.460;24.060;2023-02-28T16:28:44;17.67;;;2.03;;
61756;SDS011;57225;61.460;24.060;2023-02-28T16:31:28;9.60;;;2.20;;
61756;SDS011;57225;61.460;24.060;2023-02-28T16:34:13;8.80;;;1.95;;
61756;SDS011;57225;61.460;24.060;2023-02-28T16:36:58;14.98;;;1.88;;
61756;SDS011;57225;61.460;24.060;2023-02-28T16:39:42;12.07;;;2.75;;
61756;SDS011;57225;61.460;24.060;2023-02-28T16:42:28;8.63;;;1.33;;
61756;SDS011;57225;61.460;24.060;2023-02-28T16:45:18;21.90;;;1.67;;
61756;SDS011;57225;61.460;24.060;2023-02-28T16:48:07;14.45;;;1.85;;
61756;SDS011;57225;61.460;24.060;2023-02-28T16:50:56;8.88;;;1.48;;
61756;SDS011;57225;61.460;24.060;2023-02-28T16:53:41;17.50;;;1.85;;
61756;SDS011;57225;61.460;24.060;2023-02-28T16:56:25;20.05;;;2.65;;
61756;SDS011;57225;61.460;24.060;2023-02-28T16:59:10;30.48;;;3.63;;
61756;SDS011;57225;61.460;24.060;2023-02-28T17:01:55;15.10;;;3.38;;
61756;SDS011;57225;61.460;24.060;2023-02-28T17:04:43;14.20;;;4.18;;
61756;SDS011;57225;61.460;24.060;2023-02-28T17:07:28;11.13;;;2.38;;
61756;SDS011;57225;61.460;24.060;2023-02-28T17:10:16;18.65;;;2.35;;
61756;SDS011;57225;61.460;24.060;2023-02-28T17:13:03;8.43;;;1.60;;
61756;SDS011;57225;61.460;24.060;2023-02-28T17:15:47;10.73;;;1.73;;
61756;SDS011;57225;61.460;24.060;2023-02-28T17:18:32;5.75;;;1.33;;
61756;SDS011;57225;61.460;24.060;2023-02-28T17:21:18;7.75;;;1.67;;
61756;SDS011;57225;61.460;24.060;2023-02-28T17:24:02;12.48;;;2.10;;
61756;SDS011;57225;61.460;24.060;2023-02-28T17:26:47;11.57;;;2.20;;
61756;SDS011;57225;61.460;24.060;2023-02-28T17:29:32;4.55;;;1.77;;
61756;SDS011;57225;61.460;24.060;2023-02-28T17:32:17;18.33;;;2.83;;
61756;SDS011;57225;61.460;24.060;2023-02-28T17:35:01;13.80;;;3.35;;
61756;SDS011;57225;61.460;24.060;2023-02-28T17:37:45;12.43;;;2.33;;
61756;SDS011;57225;61.460;24.060;2023-02-28T17:40:30;9.43;;;2.33;;
61756;SDS011;57225;61.460;24.060;2023-02-28T17:43:14;7.20;;;2.13;;
61756;SDS011;57225;61.460;24.060;2023-02-28T17:45:59;20.00;;;5.13;;
61756;SDS011;57225;61.460;24.060;2023-02-28T17:48:44;14.13;;;3.90;;
61756;SDS011;57225;61.460;24.060;2023-02-28T17:51:28;15.10;;;2.55;;
61756;SDS011;57225;61.460;24.060;2023-02-28T17:54:12;14.85;;;2.38;;
61756;SDS011;57225;61.460;24.060;2023-02-28T17:56:57;16.50;;;2.13;;
61756;SDS011;57225;61.460;24.060;2023-02-28T17:59:42;15.55;;;2.08;;
61756;SDS011;57225;61.460;24.060;2023-02-28T18:02:27;19.92;;;2.10;;
61756;SDS011;57225;61.460;24.060;2023-02-28T18:05:12;15.25;;;2.30;;
61756;SDS011;57225;61.460;24.060;2023-02-28T18:07:56;9.60;;;2.10;;
61756;SDS011;57225;61.460;24.060;2023-02-28T18:10:42;13.27;;;1.80;;
61756;SDS011;57225;61.460;24.060;2023-02-28T18:13:26;15.50;;;2.13;;
61756;SDS011;57225;61.460;24.060;2023-02-28T18:16:14;12.20;;;2.00;;
61756;SDS011;57225;61.460;24.060;2023-02-28T18:18:59;11.32;;;2.13;;
61756;SDS011;57225;61.460;24.060;2023-02-28T18:21:46;12.20;;;2.22;;
61756;SDS011;57225;61.460;24.060;2023-02-28T18:24:32;8.35;;;2.28;;
61756;SDS011;57225;61.460;24.060;2023-02-28T18:27:16;10.50;;;1.63;;
61756;SDS011;57225;61.460;24.060;2023-02-28T18:30:01;15.88;;;2.65;;
61756;SDS011;57225;61.460;24.060;2023-02-28T18:32:48;22.52;;;3.05;;
61756;SDS011;57225;61.460;24.060;2023-02-28T18:35:32;16.98;;;3.03;;
61756;SDS011;57225;61.460;24.060;2023-02-28T18:38:19;18.80;;;2.22;;
61756;SDS011;57225;61.460;24.060;2023-02-28T18:41:05;13.20;;;2.50;;
61756;SDS011;57225;61.460;24.060;2023-02-28T18:43:50;15.10;;;2.30;;
61756;SDS011;57225;61.460;24.060;2023-02-28T18:46:36;18.20;;;2.10;;
61756;SDS011;57225;61.460;24.060;2023-02-28T18:49:24;17.30;;;1.75;;